Time;durP1;ratioP1;P1;durP2;ratioP2;P2;SDS_P1;SDS_P2;PMS_P1;PMS_P2;Temp;Humidity;BMP_temperature;BMP_pressure;BME280_temperature;BME280_humidity;BME280_pressure;Samples;Min_cycle;Max_cycle;Signal;HPM_P1;HPM_P2
2022/12/31 00:00:25;;;;;;;;;39.80;33.80;;;;;;;;5203891;28;8777;-75
2022/12/31 00:02:57;;;;;;;;;54.60;48.80;;;;;;;;5204135;28;9529;-75
2022/12/31 00:05:47;;;;;;;;;57.20;50.40;;;;;;;;5189884;28;8813;-76
2022/12/31 00:08:19;;;;;;;;;42.80;40.80;;;;;;;;5187796;28;8792;-75
2022/12/31 00:10:50;;;;;;;;;36.20;35.40;;;;;;;;5171124;28;8776;-78
2022/12/31 00:13:41;;;;;;;;;38.40;34.20;;;;;;;;5189723;28;8788;-77
2022/12/31 00:16:15;;;;;;;;;44.80;38.80;;;;;;;;5203830;28;8891;-81
2022/12/31 00:18:47;;;;;;;;;35.80;34.80;;;;;;;;5203836;28;8831;-77
2022/12/31 00:21:20;;;;;;;;;34.00;29.80;;;;;;;;5187444;28;8804;-77
2022/12/31 00:23:52;;;;;;;;;51.20;42.20;;;;;;;;5170860;28;8816;-77
2022/12/31 00:26:26;;;;;;;;;35.40;35.00;;;;;;;;5187077;28;8851;-78
2022/12/31 00:28:59;;;;;;;;;45.00;39.80;;;;;;;;5187424;28;8792;-79
2022/12/31 00:31:35;;;;;;;;;57.00;48.60;;;;;;;;5171147;28;8880;-78
2022/12/31 00:34:06;;;;;;;;;55.00;46.20;;;;;;;;5171097;28;8813;-77
2022/12/31 00:36:38;;;;;;;;;0.00;0.00;;;;;;;;5171072;28;8796;-77
2022/12/31 00:39:10;;;;;;;;;29.20;27.60;;;;;;;;5203637;28;8866;-77
2022/12/31 00:41:42;;;;;;;;;30.40;30.40;;;;;;;;5170923;28;8859;-75
2022/12/31 00:44:14;;;;;;;;;33.20;33.20;;;;;;;;5190222;28;8958;-78
2022/12/31 00:46:45;;;;;;;;;70.00;58.00;;;;;;;;5191390;28;8784;-76
2022/12/31 00:49:16;;;;;;;;;66.20;52.40;;;;;;;;5213400;28;8828;-77
2022/12/31 00:51:47;;;;;;;;;43.20;39.40;;;;;;;;5202452;28;8886;-78
2022/12/31 00:54:19;;;;;;;;;65.00;52.40;;;;;;;;5219687;28;9539;-76
2022/12/31 00:56:50;;;;;;;;;55.00;47.80;;;;;;;;5198656;28;8781;-77
2022/12/31 00:59:21;;;;;;;;;31.80;26.80;;;;;;;;5191355;28;8785;-79
2022/12/31 01:01:52;;;;;;;;;35.00;34.20;;;;;;;;5207087;28;8792;-78
2022/12/31 01:04:23;;;;;;;;;36.00;35.40;;;;;;;;5207370;28;8891;-76
2022/12/31 01:06:55;;;;;;;;;18.00;17.60;;;;;;;;5191186;28;8838;-77
2022/12/31 01:09:26;;;;;;;;;39.00;36.80;;;;;;;;5207188;28;8809;-77
2022/12/31 01:12:16;;;;;;;;;40.80;40.80;;;;;;;;5208704;28;8789;-75
2022/12/31 01:14:47;;;;;;;;;33.60;33.40;;;;;;;;5223459;28;8864;-77
2022/12/31 01:17:37;;;;;;;;;29.60;29.00;;;;;;;;5207294;28;8886;-78
2022/12/31 01:20:09;;;;;;;;;25.00;22.60;;;;;;;;5220215;28;8800;-77
2022/12/31 01:22:40;;;;;;;;;48.80;45.20;;;;;;;;5230407;28;8784;-75
2022/12/31 01:25:11;;;;;;;;;68.40;54.00;;;;;;;;5192994;28;8808;-77
2022/12/31 01:27:43;;;;;;;;;38.60;34.60;;;;;;;;5207334;28;8772;-76
2022/12/31 01:30:14;;;;;;;;;42.00;40.40;;;;;;;;5190580;28;8898;-76
2022/12/31 01:32:46;;;;;;;;;40.80;39.60;;;;;;;;5190484;28;8801;-76
2022/12/31 01:35:35;;;;;;;;;39.20;38.80;;;;;;;;5176341;28;8801;-76
2022/12/31 01:38:06;;;;;;;;;12.40;12.40;;;;;;;;5190355;28;8819;-78
2022/12/31 01:40:39;;;;;;;;;25.40;22.80;;;;;;;;5190328;28;8801;-78
2022/12/31 01:43:17;;;;;;;;;21.80;21.80;;;;;;;;5222970;28;8784;-78
2022/12/31 01:45:51;;;;;;;;;31.00;31.00;;;;;;;;5206882;28;8829;-78
2022/12/31 01:48:25;;;;;;;;;31.60;29.60;;;;;;;;5157371;28;8781;-77
2022/12/31 01:50:56;;;;;;;;;20.20;20.20;;;;;;;;5190131;28;8784;-78
2022/12/31 01:53:27;;;;;;;;;28.00;27.40;;;;;;;;5207806;28;8812;-80
2022/12/31 01:55:59;;;;;;;;;34.40;31.80;;;;;;;;5205802;28;8781;-80
2022/12/31 01:58:49;;;;;;;;;42.20;40.00;;;;;;;;5207792;28;8788;-79
2022/12/31 02:01:24;;;;;;;;;36.40;34.00;;;;;;;;5189735;28;8866;-80
2022/12/31 02:03:56;;;;;;;;;59.80;53.60;;;;;;;;5189593;28;8824;-76
2022/12/31 02:06:49;;;;;;;;;69.00;56.80;;;;;;;;5207021;28;8796;-76
2022/12/31 02:09:20;;;;;;;;;87.00;66.00;;;;;;;;5189714;28;8784;-75
2022/12/31 02:11:51;;;;;;;;;86.50;65.50;;;;;;;;5189706;28;8899;-75
2022/12/31 02:14:22;;;;;;;;;72.20;58.20;;;;;;;;5222191;28;8844;-75
2022/12/31 02:17:01;;;;;;;;;81.25;66.00;;;;;;;;5173489;28;8780;-76
2022/12/31 02:19:51;;;;;;;;;84.25;68.50;;;;;;;;5157689;28;8780;-76
2022/12/31 02:22:40;;;;;;;;;43.40;43.00;;;;;;;;5189199;28;8932;-75
2022/12/31 02:25:30;;;;;;;;;57.00;50.00;;;;;;;;5189367;28;8923;-76
2022/12/31 02:28:11;;;;;;;;;72.60;59.00;;;;;;;;5173383;28;8784;-77
2022/12/31 02:30:46;;;;;;;;;79.75;65.00;;;;;;;;5206118;28;9575;-76
2022/12/31 02:33:33;;;;;;;;;52.80;47.80;;;;;;;;5189630;28;8931;-76
2022/12/31 02:36:11;;;;;;;;;92.75;68.50;;;;;;;;5189527;28;8797;-77
2022/12/31 02:38:45;;;;;;;;;84.25;66.00;;;;;;;;5173004;28;8793;-79
2022/12/31 02:44:17;;;;;;;;;62.40;49.40;;;;;;;;5205124;28;8942;-80
2022/12/31 02:47:21;;;;;;;;;53.00;44.20;;;;;;;;5188871;28;8915;-78
2022/12/31 02:49:58;;;;;;;;;68.40;54.00;;;;;;;;5146606;28;8842;-77
2022/12/31 02:52:48;;;;;;;;;63.25;53.00;;;;;;;;5172416;28;8781;-76
2022/12/31 02:55:37;;;;;;;;;33.60;32.40;;;;;;;;5172764;28;8838;-76
2022/12/31 02:58:15;;;;;;;;;25.40;25.40;;;;;;;;5188958;28;8883;-76
2022/12/31 03:03:44;;;;;;;;;30.20;30.20;;;;;;;;5188280;28;8823;-74
2022/12/31 03:06:34;;;;;;;;;37.40;36.80;;;;;;;;5204043;28;8792;-75
2022/12/31 03:09:11;;;;;;;;;34.20;31.80;;;;;;;;5189031;28;8930;-75
2022/12/31 03:15:20;;;;;;;;;35.40;26.60;;;;;;;;5204381;28;8833;-74
2022/12/31 03:18:00;;;;;;;;;23.20;22.00;;;;;;;;5188175;28;8788;-75
2022/12/31 03:23:26;;;;;;;;;39.80;34.40;;;;;;;;5204520;28;8788;-79
2022/12/31 03:25:58;;;;;;;;;41.60;38.20;;;;;;;;5188322;28;9464;-79
2022/12/31 03:28:30;;;;;;;;;41.60;37.40;;;;;;;;5172279;28;9589;-79
2022/12/31 03:31:02;;;;;;;;;30.00;28.40;;;;;;;;5205632;28;8788;-75
2022/12/31 03:33:35;;;;;;;;;14.60;12.00;;;;;;;;5172237;28;8784;-75
2022/12/31 03:36:25;;;;;;;;;18.00;18.00;;;;;;;;5204253;28;8850;-75
2022/12/31 03:38:56;;;;;;;;;18.80;18.80;;;;;;;;5172018;28;9504;-75
2022/12/31 03:41:28;;;;;;;;;15.80;14.40;;;;;;;;5171335;28;8886;-75
2022/12/31 03:43:59;;;;;;;;;10.00;8.60;;;;;;;;5187581;28;8811;-78
2022/12/31 03:46:30;;;;;;;;;9.40;9.40;;;;;;;;5204305;28;8784;-78
2022/12/31 03:49:19;;;;;;;;;11.80;11.80;;;;;;;;5205439;28;8911;-78
2022/12/31 03:51:51;;;;;;;;;15.80;13.20;;;;;;;;5188734;28;8850;-75
2022/12/31 03:54:23;;;;;;;;;11.20;11.20;;;;;;;;5188638;28;8816;-73
2022/12/31 03:56:54;;;;;;;;;8.60;8.60;;;;;;;;5204395;28;8788;-75
2022/12/31 03:59:25;;;;;;;;;17.20;15.40;;;;;;;;5187538;28;8912;-74
2022/12/31 04:01:57;;;;;;;;;13.00;13.00;;;;;;;;5204691;28;8796;-73
2022/12/31 04:04:28;;;;;;;;;13.00;12.40;;;;;;;;5187753;28;9569;-75
2022/12/31 04:07:00;;;;;;;;;14.00;14.00;;;;;;;;5171487;28;8798;-81
2022/12/31 04:09:32;;;;;;;;;18.80;18.60;;;;;;;;5187538;28;8780;-80
2022/12/31 04:12:22;;;;;;;;;13.20;12.80;;;;;;;;5203802;28;8800;-82
2022/12/31 04:14:53;;;;;;;;;17.60;17.60;;;;;;;;5187640;28;8847;-75
2022/12/31 04:17:43;;;;;;;;;10.40;10.40;;;;;;;;5191835;28;8834;-71
2022/12/31 04:20:15;;;;;;;;;16.40;15.00;;;;;;;;5178037;28;8784;-82
2022/12/31 04:22:46;;;;;;;;;3.60;3.60;;;;;;;;5180380;28;8811;-81
2022/12/31 04:25:17;;;;;;;;;10.80;10.80;;;;;;;;5222885;28;8862;-75
2022/12/31 04:27:49;;;;;;;;;34.80;33.40;;;;;;;;5192133;28;8768;-81
2022/12/31 04:30:20;;;;;;;;;15.40;12.40;;;;;;;;5194296;28;8865;-82
2022/12/31 04:32:52;;;;;;;;;32.20;30.80;;;;;;;;5208397;28;8796;-86
2022/12/31 04:39:47;;;;;;;;;13.20;12.80;;;;;;;;5236617;28;8769;-83
2022/12/31 04:42:38;;;;;;;;;7.40;7.40;;;;;;;;5224451;28;8855;-85
2022/12/31 04:45:09;;;;;;;;;17.60;15.80;;;;;;;;5201135;28;8847;-86
2022/12/31 04:47:40;;;;;;;;;6.60;6.60;;;;;;;;5194849;28;8815;-85
2022/12/31 04:54:35;;;;;;;;;7.00;6.80;;;;;;;;5212846;28;8721;-83
2022/12/31 04:57:08;;;;;;;;;10.00;10.00;;;;;;;;5181188;28;8785;-80
2022/12/31 04:59:39;;;;;;;;;7.40;7.40;;;;;;;;5197164;28;8816;-84
2022/12/31 05:02:11;;;;;;;;;1.80;1.80;;;;;;;;5195609;28;8914;-79
2022/12/31 05:04:42;;;;;;;;;8.20;8.20;;;;;;;;5210639;28;8874;-78
2022/12/31 05:07:13;;;;;;;;;5.00;5.00;;;;;;;;5194287;28;8841;-85
2022/12/31 05:09:44;;;;;;;;;8.40;8.40;;;;;;;;5193555;28;8776;-81
2022/12/31 05:12:16;;;;;;;;;9.80;9.80;;;;;;;;5178350;28;8784;-80
2022/12/31 05:15:06;;;;;;;;;9.00;6.80;;;;;;;;5210348;28;8844;-84
2022/12/31 05:17:37;;;;;;;;;10.80;9.80;;;;;;;;5177445;28;8812;-77
2022/12/31 05:20:08;;;;;;;;;8.00;8.00;;;;;;;;5194816;28;8797;-81
2022/12/31 05:22:39;;;;;;;;;10.80;10.80;;;;;;;;5209815;28;9674;-81
2022/12/31 05:25:10;;;;;;;;;6.20;6.20;;;;;;;;5193357;28;8820;-82
2022/12/31 05:27:41;;;;;;;;;4.00;4.00;;;;;;;;5210443;28;8799;-81
2022/12/31 05:30:13;;;;;;;;;7.40;7.40;;;;;;;;5174611;28;8855;-82
2022/12/31 05:32:45;;;;;;;;;9.80;9.40;;;;;;;;5190646;28;8789;-83
2022/12/31 05:35:16;;;;;;;;;11.20;11.20;;;;;;;;5207454;28;8791;-79
2022/12/31 05:37:47;;;;;;;;;5.20;5.20;;;;;;;;5190349;28;8812;-80
2022/12/31 05:44:43;;;;;;;;;9.20;9.20;;;;;;;;5207835;28;9522;-80
2022/12/31 05:47:34;;;;;;;;;10.20;10.20;;;;;;;;5220818;28;8838;-78
2022/12/31 05:50:06;;;;;;;;;9.00;8.60;;;;;;;;5190147;28;8795;-78
2022/12/31 05:52:56;;;;;;;;;12.00;12.00;;;;;;;;5192543;28;8789;-76
2022/12/31 05:55:27;;;;;;;;;6.80;6.80;;;;;;;;5189943;28;8807;-78
2022/12/31 05:57:58;;;;;;;;;57.40;50.80;;;;;;;;5189332;28;8863;-74
2022/12/31 06:04:52;;;;;;;;;16.80;15.60;;;;;;;;5207019;28;8804;-73
2022/12/31 06:07:23;;;;;;;;;19.00;16.00;;;;;;;;5222588;28;8788;-75
2022/12/31 06:10:13;;;;;;;;;9.60;9.60;;;;;;;;5207782;28;12174;-73
2022/12/31 06:12:44;;;;;;;;;15.60;15.20;;;;;;;;5189584;28;8788;-74
2022/12/31 06:15:15;;;;;;;;;7.80;6.40;;;;;;;;5206260;28;9523;-76
2022/12/31 06:17:46;;;;;;;;;8.60;8.60;;;;;;;;5189648;28;8858;-75
2022/12/31 06:20:36;;;;;;;;;12.80;12.40;;;;;;;;5192138;28;8804;-74
2022/12/31 06:23:26;;;;;;;;;7.60;6.80;;;;;;;;5206117;28;8781;-76
2022/12/31 06:26:16;;;;;;;;;7.00;7.00;;;;;;;;5207089;28;8800;-77
2022/12/31 06:28:47;;;;;;;;;11.80;11.80;;;;;;;;5189812;28;8848;-77
2022/12/31 06:31:18;;;;;;;;;14.00;13.00;;;;;;;;5207328;28;8801;-76
2022/12/31 06:33:49;;;;;;;;;9.00;9.00;;;;;;;;5189405;28;8796;-77
2022/12/31 06:36:39;;;;;;;;;5.20;5.20;;;;;;;;5205627;28;9564;-76
2022/12/31 06:39:09;;;;;;;;;12.00;10.00;;;;;;;;5205479;28;8814;-76
2022/12/31 06:41:41;;;;;;;;;15.40;14.80;;;;;;;;5207062;28;8785;-74
2022/12/31 06:44:13;;;;;;;;;14.20;13.40;;;;;;;;5188881;28;8812;-76
2022/12/31 06:46:45;;;;;;;;;14.80;14.80;;;;;;;;5205678;28;9554;-76
2022/12/31 06:49:16;;;;;;;;;16.40;16.40;;;;;;;;5205629;28;8800;-77
2022/12/31 06:51:47;;;;;;;;;11.80;10.60;;;;;;;;5206090;28;8910;-78
2022/12/31 06:54:19;;;;;;;;;6.60;6.60;;;;;;;;5205851;28;8785;-78
2022/12/31 06:57:08;;;;;;;;;15.00;12.40;;;;;;;;5206436;28;8910;-75
2022/12/31 06:59:40;;;;;;;;;15.00;15.00;;;;;;;;5188915;28;9499;-78
2022/12/31 07:02:22;;;;;;;;;17.60;15.40;;;;;;;;5173181;28;8795;-79
2022/12/31 07:05:14;;;;;;;;;20.60;16.00;;;;;;;;5205955;28;8824;-78
2022/12/31 07:08:04;;;;;;;;;40.80;38.20;;;;;;;;5173038;28;8792;-76
2022/12/31 07:10:47;;;;;;;;;25.80;24.00;;;;;;;;5190315;28;8788;-77
2022/12/31 07:13:18;;;;;;;;;14.20;13.20;;;;;;;;5199290;28;8796;-78
2022/12/31 07:15:59;;;;;;;;;11.20;10.40;;;;;;;;5217744;28;8824;-78
2022/12/31 07:18:39;;;;;;;;;14.20;14.20;;;;;;;;5201110;28;8780;-77
2022/12/31 07:21:14;;;;;;;;;21.80;19.80;;;;;;;;5207162;28;8799;-77
2022/12/31 07:23:54;;;;;;;;;26.80;24.20;;;;;;;;5208067;28;8780;-75
2022/12/31 07:26:47;;;;;;;;;18.00;16.00;;;;;;;;5210641;28;8838;-75
2022/12/31 07:29:41;;;;;;;;;13.80;13.80;;;;;;;;5205583;28;8784;-74
2022/12/31 07:32:12;;;;;;;;;23.40;23.20;;;;;;;;5188607;28;9479;-71
2022/12/31 07:34:52;;;;;;;;;22.50;20.75;;;;;;;;5205461;28;8815;-75
2022/12/31 07:37:42;;;;;;;;;15.40;13.80;;;;;;;;5189200;28;8815;-74
2022/12/31 07:40:19;;;;;;;;;20.20;20.20;;;;;;;;5204704;28;8788;-75
2022/12/31 07:43:02;;;;;;;;;10.20;10.00;;;;;;;;5172291;28;8804;-75
2022/12/31 07:46:00;;;;;;;;;21.60;21.40;;;;;;;;5190321;28;8828;-76
2022/12/31 07:48:32;;;;;;;;;9.60;9.60;;;;;;;;5204422;28;8798;-75
2022/12/31 07:51:22;;;;;;;;;16.20;15.60;;;;;;;;5194597;28;8784;-77
2022/12/31 07:53:53;;;;;;;;;28.80;27.00;;;;;;;;5201835;28;8914;-77
2022/12/31 07:56:24;;;;;;;;;10.00;10.00;;;;;;;;5197679;28;8804;-77
2022/12/31 07:58:54;;;;;;;;;16.00;16.00;;;;;;;;5187806;28;8785;-77
2022/12/31 08:01:50;;;;;;;;;21.60;20.80;;;;;;;;5204520;28;8780;-77
2022/12/31 08:04:41;;;;;;;;;3.00;3.00;;;;;;;;5155398;28;8818;-76
2022/12/31 08:07:24;;;;;;;;;15.20;12.20;;;;;;;;5204310;28;8772;-76
2022/12/31 08:10:07;;;;;;;;;15.00;13.00;;;;;;;;5188025;28;8891;-76
2022/12/31 08:12:40;;;;;;;;;18.40;18.00;;;;;;;;5171526;28;8804;-77
2022/12/31 08:15:12;;;;;;;;;14.20;13.60;;;;;;;;5187323;28;8828;-76
2022/12/31 08:17:43;;;;;;;;;16.80;16.80;;;;;;;;5171413;28;8798;-77
2022/12/31 08:20:15;;;;;;;;;16.20;15.80;;;;;;;;5187419;28;8863;-77
2022/12/31 08:23:11;;;;;;;;;18.80;18.80;;;;;;;;5204554;28;8784;-76
2022/12/31 08:25:58;;;;;;;;;18.80;18.00;;;;;;;;5186673;28;8808;-79
2022/12/31 08:28:51;;;;;;;;;26.40;25.60;;;;;;;;5188508;28;8777;-77
2022/12/31 08:31:31;;;;;;;;;22.20;22.00;;;;;;;;5204108;28;9483;-74
2022/12/31 08:34:07;;;;;;;;;15.60;14.60;;;;;;;;5187148;28;8833;-77
2022/12/31 08:36:50;;;;;;;;;40.40;39.20;;;;;;;;5205207;28;8842;-76
2022/12/31 08:39:40;;;;;;;;;26.80;23.20;;;;;;;;5171050;28;8776;-78
2022/12/31 08:42:18;;;;;;;;;15.00;15.00;;;;;;;;5203655;28;8769;-77
2022/12/31 08:44:58;;;;;;;;;25.20;23.00;;;;;;;;5187348;28;8974;-76
2022/12/31 08:47:52;;;;;;;;;18.60;18.60;;;;;;;;5171306;28;8806;-75
2022/12/31 08:50:24;;;;;;;;;11.60;10.40;;;;;;;;5135641;28;8821;-76
2022/12/31 08:52:55;;;;;;;;;14.20;12.00;;;;;;;;5205214;28;8796;-76
2022/12/31 08:55:26;;;;;;;;;11.00;11.00;;;;;;;;5186897;28;8789;-76
2022/12/31 08:58:16;;;;;;;;;14.80;11.20;;;;;;;;5170935;28;8789;-75
2022/12/31 09:00:48;;;;;;;;;9.40;9.40;;;;;;;;5203598;28;9495;-77
2022/12/31 09:03:38;;;;;;;;;15.80;15.80;;;;;;;;5203457;28;8780;-76
2022/12/31 09:06:15;;;;;;;;;16.40;15.40;;;;;;;;5189859;28;8805;-77
2022/12/31 09:09:20;;;;;;;;;10.40;10.40;;;;;;;;5193716;28;8761;-76
2022/12/31 09:12:09;;;;;;;;;17.20;16.00;;;;;;;;5207302;28;8811;-77
2022/12/31 09:14:42;;;;;;;;;6.00;6.00;;;;;;;;5207217;28;8828;-76
2022/12/31 09:17:39;;;;;;;;;10.80;9.80;;;;;;;;5207323;28;9340;-78
2022/12/31 09:20:30;;;;;;;;;14.20;14.20;;;;;;;;5191287;28;8815;-77
2022/12/31 09:23:01;;;;;;;;;18.00;17.60;;;;;;;;5208797;28;9496;-77
2022/12/31 09:25:38;;;;;;;;;26.00;25.20;;;;;;;;5190741;28;8898;-76
2022/12/31 09:28:13;;;;;;;;;27.00;26.60;;;;;;;;5174942;28;9516;-76
2022/12/31 09:31:01;;;;;;;;;10.40;9.60;;;;;;;;5208066;28;9501;-76
2022/12/31 09:33:41;;;;;;;;;7.00;7.00;;;;;;;;5206931;28;8785;-75
2022/12/31 09:36:18;;;;;;;;;12.00;12.00;;;;;;;;5190709;28;9545;-76
2022/12/31 09:38:51;;;;;;;;;10.00;10.00;;;;;;;;5191244;28;8858;-77
2022/12/31 09:41:38;;;;;;;;;13.60;13.60;;;;;;;;5190373;28;8799;-78
2022/12/31 09:44:09;;;;;;;;;14.80;14.80;;;;;;;;5190453;28;8848;-78
2022/12/31 09:46:59;;;;;;;;;37.40;31.80;;;;;;;;5206648;28;9452;-78
2022/12/31 09:49:49;;;;;;;;;13.20;12.60;;;;;;;;5207477;28;8791;-79
2022/12/31 09:52:20;;;;;;;;;7.00;7.00;;;;;;;;5190881;28;9487;-83
2022/12/31 09:59:23;;;;;;;;;12.40;12.40;;;;;;;;5189871;28;8759;-77
2022/12/31 10:02:03;;;;;;;;;14.20;13.20;;;;;;;;5172310;28;8791;-81
2022/12/31 10:13:40;;;;;;;;;12.20;12.20;;;;;;;;5186758;28;8731;-77
2022/12/31 10:16:30;;;;;;;;;7.20;7.20;;;;;;;;5199007;28;9554;-77
2022/12/31 10:19:07;;;;;;;;;14.75;14.50;;;;;;;;5189870;28;8808;-75
2022/12/31 10:21:44;;;;;;;;;29.00;27.80;;;;;;;;5173054;28;11555;-79
2022/12/31 10:24:33;;;;;;;;;17.20;16.40;;;;;;;;5189677;28;8880;-75
2022/12/31 10:27:07;;;;;;;;;11.60;10.00;;;;;;;;5211656;28;8781;-80
2022/12/31 10:29:46;;;;;;;;;9.00;9.00;;;;;;;;5159354;28;8867;-81
2022/12/31 10:32:27;;;;;;;;;16.60;15.00;;;;;;;;5188497;28;8783;-80
2022/12/31 10:35:14;;;;;;;;;22.20;21.80;;;;;;;;5190582;28;8817;-80
2022/12/31 10:41:09;;;;;;;;;12.20;12.20;;;;;;;;5191561;28;8827;-80
2022/12/31 10:55:11;;;;;;;;;7.00;7.00;;;;;;;;5141461;28;8799;-82
2022/12/31 11:02:17;;;;;;;;;10.40;9.20;;;;;;;;5188203;28;8817;-80
2022/12/31 11:09:31;;;;;;;;;43.20;39.00;;;;;;;;5200189;28;8739;-79
2022/12/31 11:16:54;;;;;;;;;10.00;10.00;;;;;;;;5171075;28;9501;-82
2022/12/31 11:27:50;;;;;;;;;7.80;7.00;;;;;;;;5198685;28;8785;-82
2022/12/31 11:39:07;;;;;;;;;9.00;7.40;;;;;;;;5185577;28;8756;-79
2022/12/31 11:41:44;;;;;;;;;10.80;9.60;;;;;;;;5152666;28;8941;-80
2022/12/31 11:44:40;;;;;;;;;11.80;11.00;;;;;;;;5184089;28;8823;-80
2022/12/31 11:47:47;;;;;;;;;5.80;5.40;;;;;;;;5164778;28;8796;-81
2022/12/31 11:53:36;;;;;;;;;9.60;9.60;;;;;;;;5178501;28;8785;-82
2022/12/31 12:00:42;;;;;;;;;9.40;9.40;;;;;;;;5186023;28;9546;-80
2022/12/31 12:03:13;;;;;;;;;19.40;19.40;;;;;;;;5183741;28;8769;-79
2022/12/31 12:06:02;;;;;;;;;10.00;10.00;;;;;;;;5167405;28;8804;-80
2022/12/31 12:08:33;;;;;;;;;11.00;10.40;;;;;;;;5167354;28;8800;-80
2022/12/31 12:11:06;;;;;;;;;12.00;12.00;;;;;;;;5185577;28;8807;-79
2022/12/31 12:13:37;;;;;;;;;11.60;10.00;;;;;;;;5152308;28;8820;-82
2022/12/31 12:16:08;;;;;;;;;13.40;13.40;;;;;;;;5151326;28;8953;-79
2022/12/31 12:18:42;;;;;;;;;15.60;15.00;;;;;;;;5151623;28;8954;-79
2022/12/31 12:21:19;;;;;;;;;13.60;12.60;;;;;;;;5168526;28;8865;-80
2022/12/31 12:24:18;;;;;;;;;13.40;12.60;;;;;;;;5152709;28;8772;-83
2022/12/31 12:26:48;;;;;;;;;20.40;16.40;;;;;;;;5151324;28;8815;-82
2022/12/31 12:29:31;;;;;;;;;16.40;16.40;;;;;;;;5169974;28;8826;-80
2022/12/31 12:32:19;;;;;;;;;46.60;40.60;;;;;;;;5167667;28;8817;-79
2022/12/31 12:35:13;;;;;;;;;42.60;38.00;;;;;;;;5185264;28;8783;-82
2022/12/31 12:37:45;;;;;;;;;80.40;59.20;;;;;;;;5152036;28;9507;-83
2022/12/31 12:40:35;;;;;;;;;21.20;21.20;;;;;;;;5171492;28;8791;-84
2022/12/31 12:47:30;;;;;;;;;24.40;24.40;;;;;;;;5189378;28;8735;-79
2022/12/31 12:50:02;;;;;;;;;10.00;9.60;;;;;;;;5171755;28;8779;-79
2022/12/31 12:52:56;;;;;;;;;22.00;18.80;;;;;;;;5155626;28;8784;-82
2022/12/31 13:00:11;;;;;;;;;10.60;10.60;;;;;;;;5189198;28;8735;-81
2022/12/31 13:03:10;;;;;;;;;8.60;8.60;;;;;;;;5157415;28;8779;-80
2022/12/31 13:05:44;;;;;;;;;10.00;10.00;;;;;;;;5155088;28;8811;-80
2022/12/31 13:08:34;;;;;;;;;5.60;3.80;;;;;;;;5171588;28;8763;-81
2022/12/31 13:11:25;;;;;;;;;9.40;9.40;;;;;;;;5170582;28;8786;-82
2022/12/31 13:14:05;;;;;;;;;11.60;11.60;;;;;;;;5155417;28;8795;-83
2022/12/31 13:16:45;;;;;;;;;13.80;12.80;;;;;;;;5166072;28;8861;-78
2022/12/31 13:19:26;;;;;;;;;12.80;8.00;;;;;;;;5172799;28;8763;-86
2022/12/31 13:22:15;;;;;;;;;15.60;13.00;;;;;;;;5173102;28;8776;-84
2022/12/31 13:24:52;;;;;;;;;9.40;9.40;;;;;;;;5172337;28;9478;-87
2022/12/31 13:27:26;;;;;;;;;9.00;9.00;;;;;;;;5172046;28;8799;-87
2022/12/31 13:30:19;;;;;;;;;12.00;11.20;;;;;;;;5171886;28;9501;-85
2022/12/31 13:33:19;;;;;;;;;17.20;13.00;;;;;;;;5173061;28;8782;-84
2022/12/31 13:35:52;;;;;;;;;12.00;10.40;;;;;;;;5171906;28;8779;-82
2022/12/31 13:38:29;;;;;;;;;21.20;20.60;;;;;;;;5155967;28;8807;-82
2022/12/31 13:41:00;;;;;;;;;16.20;16.20;;;;;;;;5173262;28;8867;-78
2022/12/31 13:43:37;;;;;;;;;9.00;8.50;;;;;;;;5178992;28;8795;-80
2022/12/31 13:46:27;;;;;;;;;9.20;9.20;;;;;;;;5164455;28;11482;-79
2022/12/31 13:49:03;;;;;;;;;15.00;14.40;;;;;;;;5163231;28;8790;-78
2022/12/31 13:51:40;;;;;;;;;12.40;10.00;;;;;;;;5172190;28;8834;-78
2022/12/31 13:54:24;;;;;;;;;23.00;22.60;;;;;;;;5154782;28;8878;-77
2022/12/31 13:56:59;;;;;;;;;12.80;12.60;;;;;;;;5169860;28;8810;-78
2022/12/31 13:59:35;;;;;;;;;0.80;0.00;;;;;;;;5170560;28;8787;-78
2022/12/31 14:02:25;;;;;;;;;10.20;10.20;;;;;;;;5153865;28;8798;-77
2022/12/31 14:05:02;;;;;;;;;13.20;9.40;;;;;;;;5187355;28;9600;-75
2022/12/31 14:07:40;;;;;;;;;11.60;10.00;;;;;;;;5153526;28;8898;-75
2022/12/31 14:10:15;;;;;;;;;7.00;7.00;;;;;;;;5152958;28;8836;-70
2022/12/31 14:12:55;;;;;;;;;10.80;10.80;;;;;;;;5153259;28;8783;-70
2022/12/31 14:15:36;;;;;;;;;19.60;19.60;;;;;;;;5190527;28;8836;-74
2022/12/31 14:18:20;;;;;;;;;15.60;15.60;;;;;;;;5207470;28;8756;-73
2022/12/31 14:20:57;;;;;;;;;16.80;12.60;;;;;;;;5207371;28;8776;-74
2022/12/31 14:23:45;;;;;;;;;9.20;9.00;;;;;;;;5211297;28;8907;-73
2022/12/31 14:26:27;;;;;;;;;15.20;15.20;;;;;;;;5207038;28;8816;-74
2022/12/31 14:33:38;;;;;;;;;17.40;17.40;;;;;;;;5208781;28;8807;-75
2022/12/31 14:36:23;;;;;;;;;14.00;14.00;;;;;;;;5206831;28;8812;-75
2022/12/31 14:39:01;;;;;;;;;12.80;12.80;;;;;;;;5189924;28;8777;-82
2022/12/31 14:41:38;;;;;;;;;13.40;13.20;;;;;;;;5172780;28;8784;-78
2022/12/31 14:44:28;;;;;;;;;16.00;14.40;;;;;;;;5172960;28;8819;-75
2022/12/31 14:47:25;;;;;;;;;14.60;13.40;;;;;;;;5206079;28;8874;-73
2022/12/31 14:49:56;;;;;;;;;10.40;10.40;;;;;;;;5201597;28;8769;-73
2022/12/31 14:52:32;;;;;;;;;12.20;12.20;;;;;;;;5172523;28;8811;-73
2022/12/31 14:55:06;;;;;;;;;15.60;14.00;;;;;;;;5205529;28;8784;-73
2022/12/31 14:57:39;;;;;;;;;13.80;13.80;;;;;;;;5188798;28;8792;-75
2022/12/31 15:00:22;;;;;;;;;6.80;6.80;;;;;;;;5188751;28;8808;-76
2022/12/31 15:02:59;;;;;;;;;8.20;8.20;;;;;;;;5172971;28;8878;-74
2022/12/31 15:05:34;;;;;;;;;16.00;15.80;;;;;;;;5204918;28;8867;-73
2022/12/31 15:08:12;;;;;;;;;13.20;13.20;;;;;;;;5188436;28;9503;-74
2022/12/31 15:10:51;;;;;;;;;20.20;18.60;;;;;;;;5205962;28;8918;-72
2022/12/31 15:13:38;;;;;;;;;15.20;13.40;;;;;;;;5188087;28;8784;-73
2022/12/31 15:16:18;;;;;;;;;13.40;12.40;;;;;;;;5171948;28;8836;-73
2022/12/31 15:18:55;;;;;;;;;6.20;6.20;;;;;;;;5188760;28;8800;-72
2022/12/31 15:22:03;;;;;;;;;28.20;27.40;;;;;;;;5218606;28;8815;-73
2022/12/31 15:24:52;;;;;;;;;10.60;10.00;;;;;;;;5204923;28;8823;-74
2022/12/31 15:27:32;;;;;;;;;11.00;10.00;;;;;;;;5221764;28;8807;-75
2022/12/31 15:30:04;;;;;;;;;12.40;12.40;;;;;;;;5172484;28;8783;-72
2022/12/31 15:32:38;;;;;;;;;14.60;14.60;;;;;;;;5171735;28;8768;-75
2022/12/31 15:35:22;;;;;;;;;18.00;17.20;;;;;;;;5188318;28;8788;-73
2022/12/31 15:38:01;;;;;;;;;9.40;9.20;;;;;;;;5188321;28;8863;-71
2022/12/31 15:40:41;;;;;;;;;23.60;20.00;;;;;;;;5171695;28;8796;-72
2022/12/31 15:43:31;;;;;;;;;15.20;14.00;;;;;;;;5171987;28;8796;-70
2022/12/31 15:46:09;;;;;;;;;14.20;13.00;;;;;;;;5171955;28;8824;-73
2022/12/31 15:48:40;;;;;;;;;6.60;6.60;;;;;;;;5204479;28;8827;-69
2022/12/31 15:51:20;;;;;;;;;12.50;12.50;;;;;;;;5188635;28;8793;-77
2022/12/31 15:53:52;;;;;;;;;46.80;37.80;;;;;;;;5188106;28;11508;-74
2022/12/31 15:56:38;;;;;;;;;30.80;29.60;;;;;;;;5187442;28;8788;-74
2022/12/31 15:59:13;;;;;;;;;41.00;38.60;;;;;;;;5188025;28;8827;-72
2022/12/31 16:01:44;;;;;;;;;18.60;17.60;;;;;;;;5171265;28;8796;-73
2022/12/31 16:04:16;;;;;;;;;6.40;5.60;;;;;;;;5205177;28;9021;-72
2022/12/31 16:06:47;;;;;;;;;13.40;13.40;;;;;;;;5188586;28;8788;-72
2022/12/31 16:09:29;;;;;;;;;9.40;9.40;;;;;;;;5204038;28;8823;-73
2022/12/31 16:12:02;;;;;;;;;10.00;10.00;;;;;;;;5187878;28;8808;-73
2022/12/31 16:14:38;;;;;;;;;29.20;27.80;;;;;;;;5187173;28;8805;-74
2022/12/31 16:17:28;;;;;;;;;11.60;10.80;;;;;;;;5152169;28;8846;-74
2022/12/31 16:20:00;;;;;;;;;9.80;9.40;;;;;;;;5148216;28;8791;-72
2022/12/31 16:22:36;;;;;;;;;15.20;14.20;;;;;;;;5150495;28;9494;-74
2022/12/31 16:29:33;;;;;;;;;13.00;13.00;;;;;;;;5184861;28;8716;-73
2022/12/31 16:32:09;;;;;;;;;5.80;4.80;;;;;;;;5166773;28;8846;-74
2022/12/31 16:34:41;;;;;;;;;12.00;10.40;;;;;;;;5184678;28;8815;-74
2022/12/31 16:37:30;;;;;;;;;9.40;8.20;;;;;;;;5166637;28;8815;-73
2022/12/31 16:44:26;;;;;;;;;18.40;18.40;;;;;;;;5183769;28;8775;-74
2022/12/31 16:46:59;;;;;;;;;18.40;18.00;;;;;;;;5133994;28;8800;-73
2022/12/31 16:49:32;;;;;;;;;41.60;39.60;;;;;;;;5167156;28;9585;-73
2022/12/31 16:52:04;;;;;;;;;24.40;22.20;;;;;;;;5166625;28;8795;-72
2022/12/31 16:54:37;;;;;;;;;21.00;19.80;;;;;;;;5166659;28;8772;-74
2022/12/31 16:57:16;;;;;;;;;7.00;6.00;;;;;;;;5167080;28;8763;-73
2022/12/31 16:59:47;;;;;;;;;27.40;25.80;;;;;;;;5183265;28;8802;-73
2022/12/31 17:02:25;;;;;;;;;25.40;25.40;;;;;;;;5150480;28;8841;-74
2022/12/31 17:04:57;;;;;;;;;29.80;28.60;;;;;;;;5166618;28;8937;-74
2022/12/31 17:07:31;;;;;;;;;26.00;23.40;;;;;;;;5167388;28;8791;-74
2022/12/31 17:10:05;;;;;;;;;19.80;19.80;;;;;;;;5150575;28;8798;-74
2022/12/31 17:12:40;;;;;;;;;11.40;11.40;;;;;;;;5148892;28;8792;-74
2022/12/31 17:15:24;;;;;;;;;15.40;15.40;;;;;;;;5169354;28;8836;-74
2022/12/31 17:26:25;;;;;;;;;19.60;16.40;;;;;;;;5205538;28;8832;-74
2022/12/31 17:28:57;;;;;;;;;27.40;25.00;;;;;;;;5207829;28;8784;-74
2022/12/31 17:31:31;;;;;;;;;15.60;14.40;;;;;;;;5174341;28;8796;-73
2022/12/31 17:34:12;;;;;;;;;46.40;42.80;;;;;;;;5174830;28;8853;-73
2022/12/31 17:37:10;;;;;;;;;20.60;13.40;;;;;;;;5191016;28;8790;-72
2022/12/31 17:39:46;;;;;;;;;19.40;18.80;;;;;;;;5194120;28;8796;-74
2022/12/31 17:42:25;;;;;;;;;23.80;22.80;;;;;;;;5193038;28;8886;-73
2022/12/31 17:49:28;;;;;;;;;15.80;13.00;;;;;;;;5207729;28;8737;-72
2022/12/31 17:51:59;;;;;;;;;19.60;19.40;;;;;;;;5190657;28;8846;-73